createdAt,value
2022-12-24T00:00:09.465Z,960.52
2022-12-24T00:00:59.436Z,960.52
2022-12-24T00:01:49.419Z,960.56
2022-12-24T00:02:39.522Z,960.54
2022-12-24T00:03:29.534Z,960.46
2022-12-24T00:04:19.394Z,960.53
2022-12-24T00:05:09.372Z,960.59
2022-12-24T00:05:59.371Z,960.54
2022-12-24T00:06:49.359Z,960.63
2022-12-24T00:07:39.362Z,960.60
2022-12-24T00:08:29.339Z,960.58
2022-12-24T00:09:19.360Z,960.65
2022-12-24T00:10:09.350Z,960.63
2022-12-24T00:10:59.310Z,960.61
2022-12-24T00:11:49.300Z,960.65
2022-12-24T00:12:39.490Z,960.68
2022-12-24T00:13:29.292Z,960.64
2022-12-24T00:14:19.271Z,960.65
2022-12-24T00:15:09.262Z,960.63
2022-12-24T00:15:59.263Z,960.55
2022-12-24T00:16:49.287Z,960.64
2022-12-24T00:17:39.253Z,960.62
2022-12-24T00:18:29.233Z,960.62
2022-12-24T00:19:19.224Z,960.66
2022-12-24T00:20:09.264Z,960.64
2022-12-24T00:20:59.203Z,960.61
2022-12-24T00:21:49.188Z,960.66
2022-12-24T00:22:39.198Z,960.57
2022-12-24T00:23:29.169Z,960.58
2022-12-24T00:24:19.168Z,960.64
2022-12-24T00:25:09.161Z,960.62
2022-12-24T00:25:59.149Z,960.65
2022-12-24T00:26:49.135Z,960.72
2022-12-24T00:27:39.161Z,960.64
2022-12-24T00:28:29.119Z,960.69
2022-12-24T00:29:19.129Z,960.57
2022-12-24T00:30:09.101Z,960.60
2022-12-24T00:30:59.197Z,960.65
2022-12-24T00:31:49.077Z,960.62
2022-12-24T00:32:39.096Z,960.62
2022-12-24T00:33:29.064Z,960.62
2022-12-24T00:34:19.087Z,960.63
2022-12-24T00:35:09.049Z,960.64
2022-12-24T00:35:59.047Z,960.66
2022-12-24T00:36:49.028Z,960.69
2022-12-24T00:37:39.029Z,960.71
2022-12-24T00:38:29.008Z,960.79
2022-12-24T00:39:19.012Z,960.83
2022-12-24T00:40:08.993Z,960.83
2022-12-24T00:40:58.997Z,960.82
2022-12-24T00:41:48.973Z,960.88
2022-12-24T00:42:38.978Z,960.83
2022-12-24T00:43:28.950Z,960.82
2022-12-24T00:44:18.970Z,960.86
2022-12-24T00:45:08.941Z,960.77
2022-12-24T00:45:58.984Z,960.73
2022-12-24T00:46:48.954Z,960.78
2022-12-24T00:47:38.927Z,960.83
2022-12-24T00:48:28.898Z,960.87
2022-12-24T00:49:18.888Z,960.91
2022-12-24T00:50:08.899Z,960.88
2022-12-24T00:50:58.892Z,960.80
2022-12-24T00:51:48.857Z,960.89
2022-12-24T00:52:38.872Z,960.85
2022-12-24T00:53:28.850Z,960.87
2022-12-24T00:54:18.839Z,960.86
2022-12-24T00:55:08.824Z,960.84
2022-12-24T00:55:58.817Z,960.83
2022-12-24T00:56:48.824Z,960.76
2022-12-24T00:57:38.816Z,960.76
2022-12-24T00:58:28.785Z,960.88
2022-12-24T00:59:18.774Z,960.91
2022-12-24T01:00:08.768Z,960.82
2022-12-24T01:00:58.807Z,960.84
2022-12-24T01:01:48.902Z,960.87
2022-12-24T01:02:39.063Z,960.90
2022-12-24T01:03:28.798Z,960.93
2022-12-24T01:04:18.731Z,960.89
2022-12-24T01:05:08.710Z,960.90
2022-12-24T01:05:58.712Z,960.97
2022-12-24T01:06:48.700Z,960.99
2022-12-24T01:07:38.706Z,960.99
2022-12-24T01:08:28.674Z,960.96
2022-12-24T01:09:18.691Z,961.01
2022-12-24T01:10:08.653Z,961.06
2022-12-24T01:10:58.656Z,961.09
2022-12-24T01:11:48.653Z,961.11
2022-12-24T01:12:38.692Z,961.11
2022-12-24T01:13:28.614Z,961.11
2022-12-24T01:14:18.614Z,961.16
2022-12-24T01:15:08.615Z,961.11
2022-12-24T01:15:58.647Z,961.12
2022-12-24T01:16:48.584Z,961.06
2022-12-24T01:17:38.589Z,961.08
2022-12-24T01:18:28.589Z,961.15
2022-12-24T01:19:18.542Z,961.09
2022-12-24T01:20:15.563Z,961.18
2022-12-24T01:20:58.517Z,961.09
2022-12-24T01:21:48.524Z,961.13
2022-12-24T01:22:38.528Z,961.16
2022-12-24T01:23:28.509Z,961.20
2022-12-24T01:24:18.507Z,961.23
2022-12-24T01:25:08.490Z,961.18
2022-12-24T01:25:58.486Z,961.21
2022-12-24T01:26:48.467Z,961.16
2022-12-24T01:27:38.541Z,961.23
2022-12-24T01:28:28.450Z,961.31
2022-12-24T01:29:18.447Z,961.21
2022-12-24T01:30:08.429Z,961.20
2022-12-24T01:30:58.502Z,961.23
2022-12-24T01:31:48.435Z,961.23
2022-12-24T01:32:38.431Z,961.17
2022-12-24T01:33:28.395Z,961.08
2022-12-24T01:34:18.391Z,961.15
2022-12-24T01:35:08.377Z,961.12
2022-12-24T01:35:58.367Z,961.17
2022-12-24T01:36:49.995Z,961.09
2022-12-24T01:37:38.367Z,961.09
2022-12-24T01:38:28.336Z,961.01
2022-12-24T01:39:18.343Z,961.12
2022-12-24T01:40:08.319Z,961.12
2022-12-24T01:40:58.317Z,961.00
2022-12-24T01:41:48.317Z,961.03
2022-12-24T01:42:38.306Z,960.97
2022-12-24T01:43:28.307Z,960.97
2022-12-24T01:44:18.301Z,961.04
2022-12-24T01:45:08.284Z,961.17
2022-12-24T01:45:58.313Z,961.07
2022-12-24T01:46:48.350Z,961.15
2022-12-24T01:47:38.254Z,961.22
2022-12-24T01:48:28.250Z,961.08
2022-12-24T01:49:18.226Z,961.09
2022-12-24T01:50:08.206Z,960.99
2022-12-24T01:50:58.207Z,961.09
2022-12-24T01:51:48.215Z,960.95
2022-12-24T01:52:38.196Z,960.93
2022-12-24T01:53:28.184Z,960.96
2022-12-24T01:54:18.164Z,960.98
2022-12-24T01:55:08.157Z,961.11
2022-12-24T01:55:58.144Z,961.09
2022-12-24T01:56:48.134Z,961.14
2022-12-24T01:57:38.153Z,961.10
2022-12-24T01:58:28.115Z,961.13
2022-12-24T01:59:18.125Z,961.03
2022-12-24T02:00:08.156Z,961.01
2022-12-24T02:00:58.103Z,961.22
2022-12-24T02:01:48.182Z,961.31
2022-12-24T02:02:38.326Z,961.33
2022-12-24T02:03:28.190Z,961.41
2022-12-24T02:04:18.058Z,961.42
2022-12-24T02:05:08.066Z,961.38
2022-12-24T02:05:58.056Z,961.37
2022-12-24T02:06:48.026Z,961.40
2022-12-24T02:07:38.038Z,961.43
2022-12-24T02:08:28.008Z,961.36
2022-12-24T02:09:18.019Z,961.42
2022-12-24T02:10:07.993Z,961.40
2022-12-24T02:10:57.995Z,961.41
2022-12-24T02:11:47.996Z,961.52
2022-12-24T02:12:37.997Z,961.46
2022-12-24T02:13:27.958Z,961.52
2022-12-24T02:14:17.942Z,961.58
2022-12-24T02:15:07.937Z,961.44
2022-12-24T02:15:57.953Z,961.50
2022-12-24T02:16:47.933Z,961.41
2022-12-24T02:17:37.911Z,961.46
2022-12-24T02:18:27.928Z,961.49
2022-12-24T02:19:17.935Z,961.55
2022-12-24T02:20:07.895Z,961.59
2022-12-24T02:20:57.870Z,961.50
2022-12-24T02:21:47.873Z,961.46
2022-12-24T02:22:37.867Z,961.47
2022-12-24T02:23:27.863Z,961.48
2022-12-24T02:24:17.831Z,961.44
2022-12-24T02:25:07.830Z,961.47
2022-12-24T02:25:57.813Z,961.56
2022-12-24T02:26:47.809Z,961.53
2022-12-24T02:27:37.812Z,961.57
2022-12-24T02:28:27.801Z,961.56
2022-12-24T02:29:17.773Z,961.56
2022-12-24T02:30:07.776Z,961.50
2022-12-24T02:30:57.839Z,961.45
2022-12-24T02:31:47.802Z,961.49
2022-12-24T02:32:37.759Z,961.47
2022-12-24T02:33:27.764Z,961.47
2022-12-24T02:34:17.720Z,961.44
2022-12-24T02:35:07.724Z,961.41
2022-12-24T02:35:57.706Z,961.37
2022-12-24T02:36:47.698Z,961.49
2022-12-24T02:37:37.754Z,961.58
2022-12-24T02:38:27.679Z,961.55
2022-12-24T02:39:17.680Z,961.58
2022-12-24T02:40:13.823Z,961.50
2022-12-24T02:40:58.648Z,961.54
2022-12-24T02:41:47.659Z,961.65
2022-12-24T02:42:37.651Z,961.77
2022-12-24T02:43:27.620Z,961.76
2022-12-24T02:44:17.607Z,961.71
2022-12-24T02:45:07.611Z,961.71
2022-12-24T02:45:59.486Z,961.76
2022-12-24T02:46:47.617Z,961.65
2022-12-24T02:47:37.587Z,961.58
2022-12-24T02:48:27.574Z,961.61
2022-12-24T02:49:17.558Z,961.75
2022-12-24T02:50:07.574Z,961.74
2022-12-24T02:50:57.546Z,961.74
2022-12-24T02:51:47.538Z,961.73
2022-12-24T02:52:37.548Z,961.71
2022-12-24T02:53:27.509Z,961.80
2022-12-24T02:54:17.501Z,961.85
2022-12-24T02:55:07.505Z,961.82
2022-12-24T02:55:57.479Z,961.85
2022-12-24T02:56:47.482Z,961.92
2022-12-24T02:57:37.478Z,961.91
2022-12-24T02:58:27.456Z,961.88
2022-12-24T02:59:17.448Z,961.90
2022-12-24T03:00:07.438Z,961.92
2022-12-24T03:00:57.491Z,961.86
2022-12-24T03:01:47.537Z,961.95
2022-12-24T03:02:37.509Z,961.90
2022-12-24T03:03:27.412Z,961.98
2022-12-24T03:04:17.385Z,961.96
2022-12-24T03:05:07.391Z,962.04
2022-12-24T03:05:57.381Z,961.98
2022-12-24T03:06:47.365Z,962.09
2022-12-24T03:07:37.365Z,962.03
2022-12-24T03:08:27.359Z,962.07
2022-12-24T03:09:17.337Z,962.07
2022-12-24T03:10:07.325Z,962.13
2022-12-24T03:10:57.324Z,962.11
2022-12-24T03:11:47.303Z,962.14
2022-12-24T03:12:37.317Z,962.14
2022-12-24T03:13:27.296Z,962.23
2022-12-24T03:14:17.274Z,962.25
2022-12-24T03:15:07.272Z,962.16
2022-12-24T03:15:57.328Z,962.21
2022-12-24T03:16:47.360Z,962.21
2022-12-24T03:17:37.261Z,962.16
2022-12-24T03:18:27.260Z,962.27
2022-12-24T03:19:17.222Z,962.21
2022-12-24T03:20:07.216Z,962.25
2022-12-24T03:20:57.218Z,962.28
2022-12-24T03:21:47.193Z,962.29
2022-12-24T03:22:37.196Z,962.27
2022-12-24T03:23:27.188Z,962.22
2022-12-24T03:24:17.192Z,962.18
2022-12-24T03:25:07.152Z,962.16
2022-12-24T03:25:57.143Z,962.21
2022-12-24T03:26:47.148Z,962.21
2022-12-24T03:27:37.154Z,962.15
2022-12-24T03:28:27.145Z,962.17
2022-12-24T03:29:17.117Z,962.21
2022-12-24T03:30:07.110Z,962.15
2022-12-24T03:30:57.093Z,962.14
2022-12-24T03:31:47.176Z,962.12
2022-12-24T03:32:37.083Z,962.09
2022-12-24T03:33:27.062Z,962.05
2022-12-24T03:34:17.052Z,962.10
2022-12-24T03:35:07.052Z,962.11
2022-12-24T03:35:57.031Z,962.19
2022-12-24T03:36:47.031Z,962.24
2022-12-24T03:37:37.035Z,962.27
2022-12-24T03:38:27.016Z,962.25
2022-12-24T03:39:16.992Z,962.30
2022-12-24T03:40:07.004Z,962.31
2022-12-24T03:40:56.985Z,962.37
2022-12-24T03:41:53.991Z,962.37
2022-12-24T03:42:36.963Z,962.44
2022-12-24T03:43:26.945Z,962.41
2022-12-24T03:44:16.954Z,962.46
2022-12-24T03:45:06.941Z,962.49
2022-12-24T03:45:56.937Z,962.50
2022-12-24T03:46:46.929Z,962.51
2022-12-24T03:47:36.923Z,962.53
2022-12-24T03:48:32.505Z,962.49
2022-12-24T03:49:17.885Z,962.49
2022-12-24T03:50:06.914Z,962.54
2022-12-24T03:50:56.863Z,962.49
2022-12-24T03:51:46.877Z,962.52
2022-12-24T03:52:36.864Z,962.49
2022-12-24T03:53:26.858Z,962.48
2022-12-24T03:54:16.875Z,962.47
2022-12-24T03:55:06.830Z,962.48
2022-12-24T03:55:56.829Z,962.44
2022-12-24T03:56:46.821Z,962.45
2022-12-24T03:57:36.804Z,962.49
2022-12-24T03:58:26.864Z,962.53
2022-12-24T03:59:16.793Z,962.55
2022-12-24T04:00:06.775Z,962.54
2022-12-24T04:00:56.818Z,962.57
2022-12-24T04:01:47.045Z,962.47
2022-12-24T04:02:36.865Z,962.50
2022-12-24T04:03:26.856Z,962.47
2022-12-24T04:04:16.722Z,962.55
2022-12-24T04:05:06.727Z,962.48
2022-12-24T04:05:56.705Z,962.52
2022-12-24T04:06:46.693Z,962.51
2022-12-24T04:07:36.703Z,962.50
2022-12-24T04:08:26.672Z,962.50
2022-12-24T04:09:16.662Z,962.53
2022-12-24T04:10:06.677Z,962.58
2022-12-24T04:10:56.651Z,962.57
2022-12-24T04:11:46.659Z,962.48
2022-12-24T04:12:36.643Z,962.45
2022-12-24T04:13:26.621Z,962.41
2022-12-24T04:14:16.613Z,962.41
2022-12-24T04:15:06.613Z,962.48
2022-12-24T04:15:56.580Z,962.58
2022-12-24T04:16:46.609Z,962.62
2022-12-24T04:17:36.624Z,962.65
2022-12-24T04:18:26.571Z,962.68
2022-12-24T04:19:16.553Z,962.64
2022-12-24T04:20:06.574Z,962.65
2022-12-24T04:20:56.536Z,962.58
2022-12-24T04:21:46.539Z,962.60
2022-12-24T04:22:36.527Z,962.61
2022-12-24T04:23:26.510Z,962.63
2022-12-24T04:24:16.507Z,962.65
2022-12-24T04:25:06.508Z,962.72
2022-12-24T04:25:56.484Z,962.74
2022-12-24T04:26:46.470Z,962.73
2022-12-24T04:27:36.473Z,962.63
2022-12-24T04:28:26.459Z,962.60
2022-12-24T04:29:16.447Z,962.57
2022-12-24T04:30:06.445Z,962.63
2022-12-24T04:30:56.436Z,962.61
2022-12-24T04:31:46.443Z,962.57
2022-12-24T04:32:36.420Z,962.56
2022-12-24T04:33:26.398Z,962.58
2022-12-24T04:34:16.390Z,962.58
2022-12-24T04:35:06.395Z,962.59
2022-12-24T04:35:56.367Z,962.71
2022-12-24T04:36:46.366Z,962.80
2022-12-24T04:37:36.356Z,962.63
2022-12-24T04:38:26.355Z,962.78
2022-12-24T04:39:16.338Z,962.86
2022-12-24T04:40:06.330Z,962.85
2022-12-24T04:40:56.307Z,962.82
2022-12-24T04:41:46.311Z,962.94
2022-12-24T04:42:36.310Z,962.87
2022-12-24T04:43:26.289Z,962.98
2022-12-24T04:44:16.278Z,963.04
2022-12-24T04:45:06.268Z,963.06
2022-12-24T04:45:56.326Z,963.09
2022-12-24T04:46:46.258Z,963.06
2022-12-24T04:47:36.247Z,963.04
2022-12-24T04:48:26.231Z,963.16
2022-12-24T04:49:16.227Z,963.08
2022-12-24T04:50:06.216Z,963.07
2022-12-24T04:50:56.198Z,962.97
2022-12-24T04:51:46.224Z,963.03
2022-12-24T04:52:36.199Z,963.07
2022-12-24T04:53:26.197Z,963.05
2022-12-24T04:54:16.176Z,962.97
2022-12-24T04:55:06.158Z,962.94
2022-12-24T04:55:56.145Z,962.89
2022-12-24T04:56:46.146Z,962.93
2022-12-24T04:57:36.144Z,963.00
2022-12-24T04:58:26.121Z,963.00
2022-12-24T04:59:16.107Z,963.04
2022-12-24T05:00:06.105Z,963.07
2022-12-24T05:00:56.170Z,963.05
2022-12-24T05:01:46.168Z,962.96
2022-12-24T05:02:36.312Z,963.04
2022-12-24T05:03:26.110Z,963.01
2022-12-24T05:04:16.061Z,963.05
2022-12-24T05:05:06.045Z,963.07
2022-12-24T05:06:01.271Z,963.03
2022-12-24T05:06:47.035Z,963.09
2022-12-24T05:07:36.034Z,963.16
2022-12-24T05:08:26.023Z,963.13
2022-12-24T05:09:16.017Z,963.10
2022-12-24T05:10:05.997Z,963.12
2022-12-24T05:10:55.983Z,962.95
2022-12-24T05:11:45.985Z,963.01
2022-12-24T05:12:35.993Z,963.01
2022-12-24T05:13:31.857Z,963.05
2022-12-24T05:14:16.944Z,963.05
2022-12-24T05:15:05.940Z,963.11
2022-12-24T05:15:55.925Z,963.03
2022-12-24T05:16:45.988Z,963.09
2022-12-24T05:17:35.926Z,963.11
2022-12-24T05:18:25.895Z,963.11
2022-12-24T05:19:16.149Z,963.13
2022-12-24T05:20:05.913Z,963.14
2022-12-24T05:20:55.864Z,963.16
2022-12-24T05:21:45.865Z,963.14
2022-12-24T05:22:35.863Z,963.15
2022-12-24T05:23:25.843Z,963.22
2022-12-24T05:24:15.849Z,963.22
2022-12-24T05:25:05.854Z,963.23
2022-12-24T05:25:55.815Z,963.21
2022-12-24T05:26:45.802Z,963.15
2022-12-24T05:27:35.809Z,963.18
2022-12-24T05:28:25.791Z,963.21
2022-12-24T05:29:15.772Z,963.19
2022-12-24T05:30:05.772Z,963.15
2022-12-24T05:30:55.839Z,963.08
2022-12-24T05:31:45.767Z,963.06
2022-12-24T05:32:35.753Z,963.13
2022-12-24T05:33:25.733Z,963.17
2022-12-24T05:34:15.740Z,963.15
2022-12-24T05:35:05.743Z,963.16
2022-12-24T05:35:55.703Z,963.12
2022-12-24T05:36:45.743Z,963.11
2022-12-24T05:37:35.697Z,963.14
2022-12-24T05:38:25.729Z,963.21
2022-12-24T05:39:16.325Z,963.19
2022-12-24T05:40:05.665Z,963.24
2022-12-24T05:40:55.655Z,963.27
2022-12-24T05:41:45.640Z,963.33
2022-12-24T05:42:35.659Z,963.30
2022-12-24T05:43:25.659Z,963.25
2022-12-24T05:44:15.611Z,963.16
2022-12-24T05:45:05.607Z,963.21
2022-12-24T05:45:55.636Z,963.22
2022-12-24T05:46:45.645Z,963.23
2022-12-24T05:47:41.281Z,963.32
2022-12-24T05:48:26.561Z,963.32
2022-12-24T05:49:15.563Z,963.31
2022-12-24T05:50:05.554Z,963.24
2022-12-24T05:50:55.543Z,963.19
2022-12-24T05:51:45.540Z,963.25
2022-12-24T05:52:35.576Z,963.31
2022-12-24T05:53:25.513Z,963.19
2022-12-24T05:54:15.498Z,963.26
2022-12-24T05:55:05.493Z,963.29
2022-12-24T05:55:55.488Z,963.32
2022-12-24T05:56:45.474Z,963.29
2022-12-24T05:57:35.483Z,963.21
2022-12-24T05:58:25.465Z,963.20
2022-12-24T05:59:15.441Z,963.27
2022-12-24T06:00:05.439Z,963.37
2022-12-24T06:00:55.431Z,963.36
2022-12-24T06:01:45.589Z,963.37
2022-12-24T06:02:35.467Z,963.41
2022-12-24T06:03:25.391Z,963.38
2022-12-24T06:04:15.407Z,963.40
2022-12-24T06:05:05.437Z,963.40
2022-12-24T06:05:55.368Z,963.41
2022-12-24T06:06:45.364Z,963.40
2022-12-24T06:07:35.375Z,963.32
2022-12-24T06:08:25.342Z,963.32
2022-12-24T06:09:15.347Z,963.39
2022-12-24T06:10:05.342Z,963.35
2022-12-24T06:10:55.341Z,963.33
2022-12-24T06:11:45.320Z,963.34
2022-12-24T06:12:35.308Z,963.30
2022-12-24T06:13:25.279Z,963.31
2022-12-24T06:14:15.287Z,963.29
2022-12-24T06:15:05.313Z,963.26
2022-12-24T06:15:55.322Z,963.29
2022-12-24T06:16:45.257Z,963.31
2022-12-24T06:17:35.263Z,963.26
2022-12-24T06:18:25.236Z,963.22
2022-12-24T06:19:15.243Z,963.21
2022-12-24T06:20:05.211Z,963.22
2022-12-24T06:20:55.206Z,963.21
2022-12-24T06:21:45.197Z,963.24
2022-12-24T06:22:35.297Z,963.21
2022-12-24T06:23:25.173Z,963.18
2022-12-24T06:24:15.170Z,963.24
2022-12-24T06:25:05.213Z,963.24
2022-12-24T06:25:55.152Z,963.27
2022-12-24T06:26:45.138Z,963.33
2022-12-24T06:27:35.152Z,963.37
2022-12-24T06:28:25.126Z,963.39
2022-12-24T06:29:15.114Z,963.38
2022-12-24T06:30:05.102Z,963.44
2022-12-24T06:31:02.146Z,963.46
2022-12-24T06:31:46.167Z,963.39
2022-12-24T06:32:35.086Z,963.32
2022-12-24T06:33:25.055Z,963.44
2022-12-24T06:34:15.056Z,963.42
2022-12-24T06:35:05.169Z,963.40
2022-12-24T06:35:55.037Z,963.41
2022-12-24T06:36:45.025Z,963.37
2022-12-24T06:37:35.161Z,963.31
2022-12-24T06:38:25.005Z,963.26
2022-12-24T06:39:14.996Z,963.24
2022-12-24T06:40:04.988Z,963.29
2022-12-24T06:40:54.992Z,963.24
2022-12-24T06:41:44.973Z,963.21
2022-12-24T06:42:34.975Z,963.31
2022-12-24T06:43:24.958Z,963.40
2022-12-24T06:44:14.950Z,963.44
2022-12-24T06:45:08.389Z,963.32
2022-12-24T06:45:54.932Z,963.27
2022-12-24T06:46:44.998Z,963.31
2022-12-24T06:47:34.927Z,963.22
2022-12-24T06:48:24.898Z,963.32
2022-12-24T06:49:14.893Z,963.36
2022-12-24T06:50:04.882Z,963.38
2022-12-24T06:50:54.873Z,963.47
2022-12-24T06:51:44.865Z,963.45
2022-12-24T06:52:34.862Z,963.41
2022-12-24T06:53:24.842Z,963.37
2022-12-24T06:54:14.834Z,963.42
2022-12-24T06:55:04.827Z,963.43
2022-12-24T06:55:54.812Z,963.54
2022-12-24T06:56:44.822Z,963.51
2022-12-24T06:57:34.820Z,963.47
2022-12-24T06:58:24.782Z,963.42
2022-12-24T06:59:14.776Z,963.42
2022-12-24T07:00:04.779Z,963.41
2022-12-24T07:00:54.762Z,963.48
2022-12-24T07:01:44.897Z,963.37
2022-12-24T07:02:34.842Z,963.39
2022-12-24T07:03:24.782Z,963.38
2022-12-24T07:04:20.097Z,963.39
2022-12-24T07:05:05.716Z,963.43
2022-12-24T07:05:54.708Z,963.39
2022-12-24T07:06:44.693Z,963.47
2022-12-24T07:07:34.709Z,963.48
2022-12-24T07:08:24.673Z,963.51
2022-12-24T07:09:14.667Z,963.55
2022-12-24T07:10:04.655Z,963.54
2022-12-24T07:10:54.902Z,963.54
2022-12-24T07:11:44.652Z,963.58
2022-12-24T07:12:34.646Z,963.53
2022-12-24T07:13:24.639Z,963.47
2022-12-24T07:14:14.622Z,963.57
2022-12-24T07:15:04.607Z,963.53
2022-12-24T07:15:54.667Z,963.59
2022-12-24T07:16:44.749Z,963.62
2022-12-24T07:17:34.696Z,963.58
2022-12-24T07:18:24.564Z,963.56
2022-12-24T07:19:14.558Z,963.63
2022-12-24T07:20:04.594Z,963.61
2022-12-24T07:20:54.546Z,963.60
2022-12-24T07:21:44.533Z,963.67
2022-12-24T07:22:34.531Z,963.65
2022-12-24T07:23:24.502Z,963.73
2022-12-24T07:24:14.499Z,963.71
2022-12-24T07:25:04.582Z,963.78
2022-12-24T07:25:54.511Z,963.74
2022-12-24T07:26:44.470Z,963.76
2022-12-24T07:27:34.501Z,963.71
2022-12-24T07:28:28.049Z,963.68
2022-12-24T07:29:14.449Z,963.67
2022-12-24T07:30:04.439Z,963.66
2022-12-24T07:30:54.504Z,963.57
2022-12-24T07:31:44.480Z,963.57
2022-12-24T07:32:34.419Z,963.58
2022-12-24T07:33:24.400Z,963.54
2022-12-24T07:34:14.391Z,963.60
2022-12-24T07:35:04.384Z,963.60
2022-12-24T07:35:56.044Z,963.68
2022-12-24T07:36:45.327Z,963.72
2022-12-24T07:37:34.366Z,963.69
2022-12-24T07:38:24.338Z,963.71
2022-12-24T07:39:14.342Z,963.74
2022-12-24T07:40:04.318Z,963.72
2022-12-24T07:40:54.317Z,963.78
2022-12-24T07:41:44.297Z,963.84
2022-12-24T07:42:34.318Z,963.82
2022-12-24T07:43:24.291Z,963.89
2022-12-24T07:44:14.283Z,963.89
2022-12-24T07:45:04.267Z,963.92
2022-12-24T07:45:54.263Z,963.90
2022-12-24T07:46:44.423Z,963.99
2022-12-24T07:47:34.256Z,964.02
2022-12-24T07:48:24.241Z,964.07
2022-12-24T07:49:14.227Z,964.13
2022-12-24T07:50:04.226Z,964.20
2022-12-24T07:50:54.216Z,964.21
2022-12-24T07:51:44.195Z,964.22
2022-12-24T07:52:34.211Z,964.22
2022-12-24T07:53:24.182Z,964.27
2022-12-24T07:54:14.182Z,964.30
2022-12-24T07:55:04.170Z,964.30
2022-12-24T07:55:54.153Z,964.32
2022-12-24T07:56:44.143Z,964.30
2022-12-24T07:57:34.161Z,964.33
2022-12-24T07:58:24.121Z,964.24
2022-12-24T07:59:14.126Z,964.38
2022-12-24T08:00:04.102Z,964.40
2022-12-24T08:00:54.097Z,964.39
2022-12-24T08:01:44.330Z,964.39
2022-12-24T08:02:34.231Z,964.39
2022-12-24T08:03:24.121Z,964.43
2022-12-24T08:04:14.071Z,964.47
2022-12-24T08:05:04.056Z,964.51
2022-12-24T08:05:54.073Z,964.50
2022-12-24T08:06:44.039Z,964.50
2022-12-24T08:07:34.046Z,964.50
2022-12-24T08:08:24.038Z,964.52
2022-12-24T08:09:14.003Z,964.56
2022-12-24T08:10:04.002Z,964.60
2022-12-24T08:10:54.010Z,964.62
2022-12-24T08:11:51.385Z,964.71
2022-12-24T08:12:34.982Z,964.68
2022-12-24T08:13:23.961Z,964.68
2022-12-24T08:14:13.945Z,964.73
2022-12-24T08:15:03.943Z,964.74
2022-12-24T08:15:53.950Z,964.72
2022-12-24T08:16:43.965Z,964.78
2022-12-24T08:17:33.934Z,964.82
2022-12-24T08:18:23.892Z,964.79
2022-12-24T08:19:13.893Z,964.82
2022-12-24T08:20:04.021Z,964.85
2022-12-24T08:20:53.869Z,964.86
2022-12-24T08:21:43.862Z,964.86
2022-12-24T08:22:33.877Z,964.89
2022-12-24T08:23:23.844Z,964.93
2022-12-24T08:24:20.828Z,964.93
2022-12-24T08:25:03.814Z,964.92
2022-12-24T08:25:53.797Z,964.92
2022-12-24T08:26:43.798Z,964.85
2022-12-24T08:27:33.818Z,964.82
2022-12-24T08:28:23.784Z,964.83
2022-12-24T08:29:13.784Z,964.84
2022-12-24T08:30:03.776Z,964.88
2022-12-24T08:30:53.760Z,964.91
2022-12-24T08:31:43.823Z,964.91
2022-12-24T08:32:33.767Z,964.89
2022-12-24T08:33:23.729Z,964.93
2022-12-24T08:34:13.725Z,964.98
2022-12-24T08:35:03.713Z,965.04
2022-12-24T08:35:53.711Z,964.99
2022-12-24T08:36:43.697Z,965.01
2022-12-24T08:37:33.702Z,965.02
2022-12-24T08:38:23.690Z,965.00
2022-12-24T08:39:13.671Z,965.03
2022-12-24T08:40:03.672Z,965.01
2022-12-24T08:40:53.664Z,965.05
2022-12-24T08:41:43.634Z,965.07
2022-12-24T08:42:33.676Z,965.07
2022-12-24T08:43:23.614Z,965.07
2022-12-24T08:44:13.639Z,965.03
2022-12-24T08:45:03.594Z,965.07
2022-12-24T08:45:53.625Z,965.05
2022-12-24T08:46:43.639Z,965.04
2022-12-24T08:47:33.593Z,965.06
2022-12-24T08:48:23.565Z,965.00
2022-12-24T08:49:13.565Z,964.98
2022-12-24T08:50:03.544Z,965.00
2022-12-24T08:50:53.545Z,965.00
2022-12-24T08:51:43.533Z,964.97
2022-12-24T08:52:33.534Z,965.03
2022-12-24T08:53:23.505Z,965.02
2022-12-24T08:54:13.501Z,965.03
2022-12-24T08:55:03.483Z,965.00
2022-12-24T08:55:56.251Z,964.98
2022-12-24T08:56:43.483Z,964.99
2022-12-24T08:57:33.483Z,964.95
2022-12-24T08:58:23.456Z,964.97
2022-12-24T08:59:13.442Z,964.86
2022-12-24T09:00:03.434Z,964.91
2022-12-24T09:00:53.468Z,964.90
2022-12-24T09:01:43.626Z,964.93
2022-12-24T09:02:33.566Z,964.97
2022-12-24T09:03:27.294Z,964.97
2022-12-24T09:04:13.392Z,965.01
2022-12-24T09:05:03.381Z,965.03
2022-12-24T09:05:53.377Z,965.06
2022-12-24T09:06:43.361Z,965.06
2022-12-24T09:07:33.370Z,965.06
2022-12-24T09:08:23.341Z,965.08
2022-12-24T09:09:13.340Z,965.10
2022-12-24T09:10:03.326Z,965.13
2022-12-24T09:10:53.315Z,965.18
2022-12-24T09:11:43.301Z,965.10
2022-12-24T09:12:33.319Z,965.06
2022-12-24T09:13:23.288Z,965.07
2022-12-24T09:14:13.284Z,965.12
2022-12-24T09:15:04.341Z,965.13
2022-12-24T09:15:53.260Z,965.18
2022-12-24T09:16:43.353Z,965.20
2022-12-24T09:17:33.264Z,965.12
2022-12-24T09:18:23.240Z,965.14
2022-12-24T09:19:13.219Z,965.13
2022-12-24T09:20:03.233Z,965.10
2022-12-24T09:20:57.281Z,965.09
2022-12-24T09:21:43.200Z,965.08
2022-12-24T09:22:33.198Z,965.13
2022-12-24T09:23:23.186Z,965.13
2022-12-24T09:24:13.159Z,965.13
2022-12-24T09:25:03.172Z,965.16
2022-12-24T09:25:53.149Z,965.16
2022-12-24T09:26:43.138Z,965.16
2022-12-24T09:27:33.146Z,965.21
2022-12-24T09:28:23.119Z,965.21
2022-12-24T09:29:13.112Z,965.21
2022-12-24T09:30:03.108Z,965.28
2022-12-24T09:30:53.087Z,965.27
2022-12-24T09:31:43.150Z,965.29
2022-12-24T09:32:33.104Z,965.25
2022-12-24T09:33:23.067Z,965.24
2022-12-24T09:34:13.052Z,965.24
2022-12-24T09:35:03.055Z,965.24
2022-12-24T09:35:53.036Z,965.24
2022-12-24T09:36:43.038Z,965.22
2022-12-24T09:37:33.055Z,965.27
2022-12-24T09:38:23.035Z,965.26
2022-12-24T09:39:13.013Z,965.29
2022-12-24T09:40:02.988Z,965.21
2022-12-24T09:40:52.978Z,965.15
2022-12-24T09:41:42.967Z,965.23
2022-12-24T09:42:32.976Z,965.24
2022-12-24T09:43:22.962Z,965.27
2022-12-24T09:44:12.948Z,965.21
2022-12-24T09:45:02.935Z,965.22
2022-12-24T09:45:52.970Z,965.16
2022-12-24T09:46:42.917Z,965.14
2022-12-24T09:47:32.918Z,965.18
2022-12-24T09:48:22.896Z,965.11
2022-12-24T09:49:12.896Z,965.11
2022-12-24T09:50:02.906Z,965.11
2022-12-24T09:50:52.869Z,965.17
2022-12-24T09:51:42.867Z,965.21
2022-12-24T09:52:32.865Z,965.27
2022-12-24T09:53:22.846Z,965.29
2022-12-24T09:54:12.834Z,965.30
2022-12-24T09:55:02.826Z,965.31
2022-12-24T09:55:52.816Z,965.31
2022-12-24T09:56:42.806Z,965.25
2022-12-24T09:57:32.819Z,965.33
2022-12-24T09:58:22.784Z,965.35
2022-12-24T09:59:12.777Z,965.35
2022-12-24T10:00:02.773Z,965.42
2022-12-24T10:00:52.754Z,965.35
2022-12-24T10:01:42.978Z,965.34
2022-12-24T10:02:32.916Z,965.34
2022-12-24T10:03:22.774Z,965.36
2022-12-24T10:04:12.729Z,965.35
2022-12-24T10:05:02.732Z,965.37
2022-12-24T10:05:52.736Z,965.41
2022-12-24T10:06:42.706Z,965.42
2022-12-24T10:07:32.702Z,965.49
2022-12-24T10:08:22.677Z,965.44
2022-12-24T10:09:12.663Z,965.44
2022-12-24T10:10:02.658Z,965.44
2022-12-24T10:10:52.652Z,965.45
2022-12-24T10:11:44.356Z,965.50
2022-12-24T10:12:32.645Z,965.52
2022-12-24T10:13:22.624Z,965.51
2022-12-24T10:14:12.616Z,965.47
2022-12-24T10:15:02.604Z,965.36
2022-12-24T10:15:52.598Z,965.36
2022-12-24T10:16:42.687Z,965.36
2022-12-24T10:17:32.582Z,965.39
2022-12-24T10:18:22.568Z,965.39
2022-12-24T10:19:12.558Z,965.36
2022-12-24T10:20:02.549Z,965.40
2022-12-24T10:20:52.541Z,965.40
2022-12-24T10:21:42.539Z,965.41
2022-12-24T10:22:32.539Z,965.40
2022-12-24T10:23:22.511Z,965.41